Portland, Oregon
Traffic Map
Current Weather Conditions
Portland, Oregon
Overcast
Overcast
16°
Feels Like: 16°
Wind Chill: 16° Ceiling: 8500
Heat Index: 16° Visibility: 10mi
Dew Point: 10° Wind: 10mph
Humidity: 69% Direction: 320° (NW)
Pressure: 29.96in Gusts: 0mph
Raw Report DataKPDX 050153Z 32009KT 10SM FEW035 BKN085 OVC120 16/10 A2996 RMK AO2 SLP144 T01560100
Traffic Incident Summary
Active as of:
Severity:
Category:
InformationThere was an issue retrieving the traffic information for this location. Please try a different location or try again shortly.
Advertisements
Track Severe Weather on mobile